Observations for FIRENZE PERETOLA, Italy (LIRQ)

LIRQ 160820Z 05010KT 010V100 9999 FEW040 14/05 Q1024
LIRQ 160750Z 07008G19KT 020V130 9999 FEW040 14/04 Q1024 
LIRQ 160720Z 04013G28KT 360V100 9999 FEW040 14/05 Q1024 
LIRQ 160650Z VRB06KT 9999 FEW040 13/06 Q1024
LIRQ 160620Z VRB07KT 9999 FEW050 13/06 Q1023
LIRQ 160550Z VRB03KT 9999 SCT045 13/06 Q1023
LIRQ 160520Z 02006KT 330V120 9999 BKN045 13/05 Q1023
LIRQ 160450Z 02011KT 340V050 9999 SCT050 13/05 Q1023
LIRQ 160420Z 06005KT 010V110 9999 FEW045 12/05 Q1023
LIRQ 160350Z 03005KT 310V080 CAVOK 13/05 Q1023  
LIRQ 160320Z VRB02KT CAVOK 11/05 Q1023  
LIRQ 160250Z VRB03KT CAVOK 11/06 Q1023  
LIRQ 160220Z VRB02KT CAVOK 13/05 Q1023  
LIRQ 160150Z 04006KT 010V100 CAVOK 13/05 Q1023  
LIRQ 160120Z 07005KT 010V100 CAVOK 13/06 Q1023  
LIRQ 160050Z 02004KT 310V080 CAVOK 13/06 Q1023  
LIRQ 160020Z 05003KT 010V100 CAVOK 13/06 Q1022  
LIRQ 152350Z 04008KT 360V060 CAVOK 14/06 Q1022  
LIRQ 152320Z 03006KT 310V110 CAVOK 14/06 Q1022  
LIRQ 152250Z 04008KT 010V080 CAVOK 14/06 Q1022  
LIRQ 152220Z VRB03KT CAVOK 14/07 Q1022  
LIRQ 152150Z 19006KT CAVOK 12/07 Q1022  
LIRQ 152120Z 23004KT CAVOK 12/07 Q1022  
LIRQ 152050Z 20008KT CAVOK 11/07 Q1022  
LIRQ 152020Z 18005KT CAVOK 12/07 Q1022  
LIRQ 151950Z 19005KT 160V230 CAVOK 12/07 Q1022  
LIRQ 151920Z 15006KT 100V200 CAVOK 13/07 Q1022  
LIRQ 151850Z VRB03KT CAVOK 13/07 Q1022  
LIRQ 151820Z VRB02KT CAVOK 14/06 Q1022  
LIRQ 151750Z 02008KT 350V070 CAVOK 15/06 Q1022  
LIRQ 151720Z 02005KT 310V100 CAVOK 15/07 Q1022  
LIRQ 151650Z 01008KT 340V040 CAVOK 15/07 Q1022  
LIRQ 151620Z 33009KT CAVOK 15/07 Q1022  
LIRQ 151550Z 31006KT 270V340 CAVOK 16/07 Q1022  
LIRQ 151520Z 34006KT 300V010 CAVOK 17/07 Q1022  
LIRQ 151450Z 36005KT 310V040 CAVOK 18/07 Q1022  
LIRQ 151420Z 01007KT 330V050 CAVOK 18/08 Q1022  
LIRQ 151350Z 02010KT 350V050 CAVOK 18/08 Q1022  
LIRQ 151320Z 02010KT CAVOK 19/08 Q1022  
LIRQ 151250Z 02009KT CAVOK 19/08 Q1022  
LIRQ 151220Z 02009KT CAVOK 19/08 Q1023  
LIRQ 151150Z 36006KT 320V040 CAVOK 19/09 Q1023  
LIRQ 151120Z 04007KT 360V090 CAVOK 19/09 Q1023  
LIRQ 151050Z 36005KT 300V040 CAVOK 19/08 Q1024  
LIRQ 151020Z 02006KT 320V060 CAVOK 18/09 Q1024  
LIRQ 150950Z 03009KT 360V060 CAVOK 17/09 Q1024  
LIRQ 150920Z 03010KT 340V070 CAVOK 17/09 Q1024  
LIRQ 150850Z VRB03KT CAVOK 15/09 Q1024  
LIRQ 150820Z VRB02KT CAVOK 13/09 Q1024  
LIRQ 150750Z 19003KT 140V240 CAVOK 11/09 Q1024